METAR Data
IDs: Format: Raw Decoded Include TAF

Data at: 0958 UTC 18 Jan 2022

KJMS 180856Z AUTO 17006KT 7SM OVC110 M06/M08 A2942 RMK AO2 SLP982 I3001 T10561078 56045
KJMS 180756Z AUTO 18014KT 4SM BR SCT002 M06/M08 A2944 RMK AO2 SLP988 T10611078
KJMS 180739Z AUTO 17012KT 3SM BR OVC002 M06/M08 A2945 RMK AO2 PRESFR T10611078
KJMS 180732Z AUTO 16008KT 1 1/4SM BR OVC002 M06/M08 A2946 RMK AO2 T10611078
KJMS 180656Z AUTO 16006KT 1/2SM FZFG VV002 M06/M07 A2950 RMK AO2 SLP010 I1001 T10561072
KJMS 180646Z AUTO 15007KT 1/2SM FZFG VV002 M06/M07 A2951 RMK AO2 PRESFR I1001 T10561067
KJMS 180611Z AUTO 14006KT 1/4SM FZFG VV002 M06/M07 A2955 RMK AO2 T10561067
KJMS 180556Z AUTO 14007KT 1/2SM FZFG VV002 M06/M07 A2956 RMK AO2 SLP030 I1000 I6000 T10561067 11050 21061 400061061 56036
KJMS 180547Z AUTO 13006KT 3/4SM BR VV003 M06/M07 A2957 RMK AO2 I1000 T10561067
KJMS 180530Z AUTO 14009KT 1 1/2SM BR OVC002 M05/M07 A2957 RMK AO2 T10501067
KJMS 180522Z AUTO 14006KT 2SM BR OVC002 M05/M07 A2958 RMK AO2 T10501067
KJMS 180456Z AUTO 15004KT 4SM BR OVC004 M06/M07 A2960 RMK AO2 SLP043 T10561067
KJMS 180412Z AUTO 16004KT 6SM BR OVC004 M05/M07 A2962 RMK AO2 T10501067
KJMS 180356Z AUTO 16005KT 6SM BR OVC005 M05/M07 A2963 RMK AO2 SLP054 T10501067
KJMS 180310Z AUTO 12009KT 7SM BKN004 BKN015 OVC085 M05/M07 A2965 RMK AO2 PRESFR T10501067
KJMS 180256Z AUTO 11007KT 7SM FEW004 BKN015 OVC085 M05/M07 A2967 RMK AO2 SLP068 I3000 T10501067 58017
KJMS 180247Z AUTO 12007KT 7SM FEW004 BKN015 OVC085 M05/M07 A2968 RMK AO2 T10501067
KJMS 180220Z AUTO 11007KT 7SM FEW004 OVC085 M06/M07 A2968 RMK AO2 T10561072
KJMS 180156Z AUTO 12008KT 6SM BR BKN004 OVC085 M05/M07 A2968 RMK AO2 SLP073 I1000 T10501067
KJMS 180104Z AUTO 12008KT 7SM OVC004 M05/M07 A2970 RMK AO2 T10501067
KJMS 180056Z AUTO 13007KT 7SM OVC005 M05/M07 A2970 RMK AO2 SLP080 I1000 T10501072
KJMS 180034Z AUTO 13006KT 7SM BKN005 M06/M08 A2971 RMK AO2 T10611078
KJMS 180017Z AUTO 10006KT 8SM FEW005 M06/M07 A2971 RMK AO2 T10561072
KJMS 172356Z AUTO 10005KT 10SM CLR M06/M07 A2972 RMK AO2 SLP086 T10561072 10006 21056 55001
KJMS 172256Z AUTO 09008KT 10SM CLR M03/M06 A2971 RMK AO2 SLP083 T10331061
KJMS 172156Z AUTO 09009KT 10SM FEW085 M01/M05 A2970 RMK AO2 SLP077 T10111050
KJMS 172056Z AUTO 08008KT 10SM CLR 00/M04 A2972 RMK AO2 SLP083 T00001039 58007
KJMS 171956Z AUTO 09006KT 10SM BKN070 OVC085 01/M03 A2972 RMK AO2 SLP082 T00061033
KJMS 171856Z AUTO 13006KT 10SM BKN070 OVC080 00/M04 A2975 RMK AO2 SLP093 T00001039
KJMS 171756Z AUTO 10007KT 10SM SCT065 BKN080 BKN100 M01/M04 A2974 RMK AO2 SLP090 T10061044 10000 21028 58004
KJMS 171656Z AUTO 00000KT 10SM OVC070 M01/M04 A2977 RMK AO2 SLP098 T10111044
KJMS 171556Z AUTO 00000KT 10SM OVC065 M02/M05 A2976 RMK AO2 SLP098 T10221050
KJMS 171456Z AUTO 11003KT 10SM BKN075 OVC085 M03/M06 A2975 RMK AO2 SLP095 T10281056 58007
KJMS 171356Z AUTO 23005KT 10SM FEW070 OVC085 M02/M06 A2976 RMK AO2 SLP097 T10221056
KJMS 171256Z AUTO 25006KT 10SM OVC080 M02/M06 A2978 RMK AO2 SLP103 T10221056
KJMS 171156Z AUTO 25005KT 10SM OVC090 M02/M06 A2978 RMK AO2 SLP103 T10221056 11011 21028 56018
KJMS 171056Z AUTO 26004KT 10SM BKN120 M02/M06 A2979 RMK AO2 SLP107 T10221056
KJMS 170956Z AUTO 26006KT 10SM CLR M03/M06 A2980 RMK AO2 SLP112 T10281061
KJMS 170856Z AUTO 27010KT 10SM CLR M03/M06 A2983 RMK AO2 SLP121 T10281056 56011
KJMS 170756Z AUTO 28009KT 10SM CLR M02/M05 A2984 RMK AO2 SLP122 T10221050
KJMS 170656Z AUTO 26007KT 10SM BKN044 M01/M04 A2985 RMK AO2 SLP125 T10111039
KJMS 170556Z AUTO 22004KT 10SM OVC050 M02/M04 A2987 RMK AO2 SLP131 T10171039 11006 21017 400111017 56020
KJMS 170538Z AUTO 25005KT 10SM SCT021 OVC050 M01/M04 A2987 RMK AO2 T10111039
KJMS 170456Z AUTO 23006KT 10SM OVC017 M01/M03 A2988 RMK AO2 SLP136 T10061033
KJMS 170356Z AUTO 22004KT 10SM OVC019 M01/M04 A2991 RMK AO2 SLP145 T10111044
KJMS 170256Z AUTO 22004KT 10SM OVC020 M01/M04 A2993 RMK AO2 SLP152 T10111044 58001
KJMS 170156Z AUTO 32006KT 10SM OVC024 M01/M04 A2993 RMK AO2 SLP156 T10111044
KJMS 170056Z AUTO 30005KT 10SM OVC023 M01/M04 A2993 RMK AO2 SLP152 T10111044
KJMS 162356Z AUTO 28006KT 10SM OVC026 M01/M04 A2993 RMK AO2 SLP152 60000 T10111044 10011 21017 50007
KJMS 162316Z AUTO 31006KT 10SM FEW012 OVC029 M01/M04 A2993 RMK AO2 T10111044
KJMS 162256Z AUTO 31008KT 10SM BKN013 OVC026 M01/M04 A2994 RMK AO2 SLP157 T10111044